createdAt,value
2022-11-04T00:03:19.451Z,95.20
2022-11-04T00:06:41.972Z,95.00
2022-11-04T00:10:04.533Z,95.20
2022-11-04T00:13:30.148Z,95.20
2022-11-04T00:17:11.081Z,95.10
2022-11-04T00:20:52.049Z,95.00
2022-11-04T00:24:33.339Z,95.10
2022-11-04T00:28:34.635Z,95.00
2022-11-04T00:32:15.587Z,95.00
2022-11-04T00:35:37.799Z,94.90
2022-11-04T00:39:00.028Z,95.00
2022-11-04T00:42:22.627Z,94.90
2022-11-04T00:45:45.149Z,94.80
2022-11-04T00:49:07.366Z,94.90
2022-11-04T00:52:29.596Z,94.80
2022-11-04T00:55:51.786Z,94.80
2022-11-04T00:59:14.764Z,94.90
2022-11-04T01:02:37.147Z,94.90
2022-11-04T01:05:59.559Z,94.90
2022-11-04T01:09:21.827Z,95.00
2022-11-04T01:12:44.049Z,94.80
2022-11-04T01:16:09.466Z,94.80
2022-11-04T01:19:31.712Z,94.80
2022-11-04T01:22:53.920Z,94.70
2022-11-04T01:26:22.228Z,94.60
2022-11-04T01:29:44.447Z,94.80
2022-11-04T01:33:06.808Z,94.70
2022-11-04T01:36:29.052Z,94.60
2022-11-04T01:39:51.268Z,94.60
2022-11-04T01:43:16.914Z,94.50
2022-11-04T01:46:43.939Z,94.60
2022-11-04T01:50:15.647Z,94.40
2022-11-04T01:53:41.782Z,94.50
2022-11-04T01:57:08.927Z,94.40
2022-11-04T02:00:31.483Z,94.30
2022-11-04T02:04:18.385Z,94.40
2022-11-04T02:07:40.900Z,94.30
2022-11-04T02:11:04.587Z,94.40
2022-11-04T02:14:27.324Z,94.40
2022-11-04T02:17:57.644Z,94.00
2022-11-04T02:21:44.482Z,94.10
2022-11-04T02:25:06.903Z,94.20
2022-11-04T02:28:41.093Z,94.20
2022-11-04T02:32:31.084Z,94.10
2022-11-04T02:36:01.983Z,94.10
2022-11-04T02:39:54.254Z,94.10
2022-11-04T02:43:25.285Z,94.00
2022-11-04T02:46:53.300Z,94.00
2022-11-04T02:50:34.638Z,93.80
2022-11-04T02:54:17.103Z,94.00
2022-11-04T02:57:42.055Z,93.80
2022-11-04T03:01:07.623Z,93.90
2022-11-04T03:04:36.233Z,94.00
2022-11-04T03:08:04.334Z,94.30
2022-11-04T03:11:27.968Z,94.30
2022-11-04T03:14:59.498Z,94.20
2022-11-04T03:18:29.964Z,94.20
2022-11-04T03:22:14.392Z,94.10
2022-11-04T03:25:40.650Z,94.00
2022-11-04T03:29:15.065Z,94.00
2022-11-04T03:33:27.771Z,93.90
2022-11-04T03:36:50.020Z,93.90
2022-11-04T03:40:13.942Z,93.90
2022-11-04T03:43:37.377Z,93.80
2022-11-04T03:46:59.819Z,93.80
2022-11-04T03:50:33.178Z,93.80
2022-11-04T03:53:56.589Z,93.80
2022-11-04T03:57:37.116Z,93.80
2022-11-04T04:01:15.609Z,93.70
2022-11-04T04:04:43.436Z,93.70
2022-11-04T04:08:11.845Z,93.70
2022-11-04T04:11:39.706Z,93.60
2022-11-04T04:15:18.519Z,93.60
2022-11-04T04:18:58.861Z,93.60
2022-11-04T04:22:26.052Z,93.60
2022-11-04T04:26:07.041Z,93.60
2022-11-04T04:29:30.232Z,93.60
2022-11-04T04:33:03.105Z,93.50
2022-11-04T04:36:25.541Z,93.50
2022-11-04T04:40:11.484Z,93.50
2022-11-04T04:43:52.190Z,93.50
2022-11-04T04:47:21.811Z,93.50
2022-11-04T04:50:52.823Z,93.60
2022-11-04T04:54:15.544Z,93.50
2022-11-04T04:57:38.181Z,93.50
2022-11-04T05:01:00.418Z,93.50
2022-11-04T05:04:22.684Z,93.60
2022-11-04T05:07:45.353Z,93.60
2022-11-04T05:11:07.590Z,93.60
2022-11-04T05:14:30.458Z,93.60
2022-11-04T05:17:58.044Z,93.60
2022-11-04T05:21:20.253Z,93.60
2022-11-04T05:24:42.488Z,93.50
2022-11-04T05:28:04.789Z,93.60
2022-11-04T05:31:27.661Z,93.60
2022-11-04T05:34:49.849Z,93.60
2022-11-04T05:38:12.058Z,93.60
2022-11-04T05:41:34.998Z,93.60
2022-11-04T05:44:57.221Z,93.60
2022-11-04T05:48:19.440Z,94.00
2022-11-04T05:51:41.644Z,93.60
2022-11-04T05:55:03.980Z,93.50
2022-11-04T05:58:26.179Z,93.50
2022-11-04T06:01:50.256Z,93.60
2022-11-04T06:05:12.602Z,93.60
2022-11-04T06:08:34.843Z,93.60
2022-11-04T06:11:57.204Z,93.70
2022-11-04T06:15:19.437Z,93.70
2022-11-04T06:18:41.846Z,93.60
2022-11-04T06:22:04.128Z,93.60
2022-11-04T06:25:26.319Z,93.50
2022-11-04T06:28:48.487Z,93.60
2022-11-04T06:32:15.195Z,93.60
2022-11-04T06:35:37.357Z,93.70
2022-11-04T06:39:04.335Z,93.90
2022-11-04T06:42:28.162Z,94.10
2022-11-04T06:45:54.581Z,94.30
2022-11-04T06:49:19.962Z,94.50
2022-11-04T06:52:42.654Z,94.60
2022-11-04T06:56:06.183Z,94.70
2022-11-04T06:59:28.449Z,94.80
2022-11-04T07:02:50.782Z,94.90
2022-11-04T07:06:13.136Z,94.90
2022-11-04T07:09:35.393Z,94.90
2022-11-04T07:12:57.650Z,94.80
2022-11-04T07:16:19.896Z,94.90
2022-11-04T07:19:42.122Z,95.20
2022-11-04T07:23:04.467Z,95.00
2022-11-04T07:26:26.972Z,95.30
2022-11-04T07:29:49.208Z,95.60
2022-11-04T07:33:11.488Z,95.80
2022-11-04T07:36:33.689Z,95.70
2022-11-04T07:39:56.036Z,95.80
2022-11-04T07:43:18.476Z,95.80
2022-11-04T07:46:41.873Z,95.90
2022-11-04T07:50:10.581Z,95.90
2022-11-04T07:53:34.680Z,95.80
2022-11-04T07:56:57.738Z,96.10
2022-11-04T08:00:20.396Z,96.00
2022-11-04T08:03:43.153Z,96.10
2022-11-04T08:07:08.912Z,95.60
2022-11-04T08:10:31.093Z,96.40
2022-11-04T08:13:53.329Z,97.50
2022-11-04T08:17:15.724Z,97.80
2022-11-04T08:20:38.462Z,98.20
2022-11-04T08:24:03.786Z,97.50
2022-11-04T08:27:26.123Z,97.90
2022-11-04T08:31:04.329Z,98.40
2022-11-04T08:34:26.574Z,96.90
2022-11-04T08:37:48.807Z,99.50
2022-11-04T08:41:13.255Z,99.20
2022-11-04T08:44:35.820Z,98.80
2022-11-04T08:48:01.414Z,99.00
2022-11-04T08:51:30.060Z,99.40
2022-11-04T08:54:57.410Z,99.60
2022-11-04T08:58:20.935Z,99.30
2022-11-04T09:01:44.239Z,98.60
2022-11-04T09:05:06.944Z,95.80
2022-11-04T09:08:29.208Z,96.30
2022-11-04T09:11:51.673Z,97.50
2022-11-04T09:15:14.267Z,96.80
2022-11-04T09:18:36.492Z,97.80
2022-11-04T09:21:58.762Z,98.90
2022-11-04T09:25:21.245Z,98.00
2022-11-04T09:28:43.758Z,97.30
2022-11-04T09:32:06.328Z,97.60
2022-11-04T09:35:28.610Z,98.00
2022-11-04T09:38:50.983Z,98.20
2022-11-04T09:42:36.771Z,98.80
2022-11-04T09:45:59.825Z,99.00
2022-11-04T09:49:23.182Z,99.20
2022-11-04T09:52:53.087Z,97.80
2022-11-04T09:56:25.051Z,98.60
2022-11-04T09:59:48.500Z,99.30
2022-11-04T10:03:39.793Z,99.40
2022-11-04T10:07:17.434Z,99.50
2022-11-04T10:10:39.816Z,99.40
2022-11-04T10:14:27.058Z,99.20
2022-11-04T10:18:03.444Z,99.40
2022-11-04T10:21:47.873Z,99.20
2022-11-04T10:25:21.300Z,99.40
2022-11-04T10:28:52.428Z,94.30
2022-11-04T10:32:35.315Z,98.00
2022-11-04T10:36:05.985Z,98.70
2022-11-04T10:39:34.405Z,98.60
2022-11-04T10:42:59.352Z,98.80
2022-11-04T10:46:47.795Z,98.60
2022-11-04T10:50:28.850Z,98.90
2022-11-04T10:53:59.552Z,98.90
2022-11-04T10:57:25.433Z,99.10
2022-11-04T11:00:48.366Z,98.90
2022-11-04T11:04:38.088Z,99.10
2022-11-04T11:08:00.524Z,99.20
2022-11-04T11:11:40.692Z,99.70
2022-11-04T11:15:24.782Z,98.60
2022-11-04T11:19:14.420Z,98.60
2022-11-04T11:22:46.869Z,98.80
2022-11-04T11:26:20.985Z,98.60
2022-11-04T11:29:45.924Z,98.30
2022-11-04T11:33:23.250Z,98.50
2022-11-04T11:36:48.141Z,98.40
2022-11-04T11:40:27.758Z,98.20
2022-11-04T11:43:55.306Z,98.30
2022-11-04T11:47:31.389Z,98.60
2022-11-04T11:51:00.856Z,99.60
2022-11-04T11:54:27.332Z,99.90
2022-11-04T12:02:04.684Z,99.50
2022-11-04T12:09:55.930Z,99.90
2022-11-04T12:13:42.118Z,99.90
2022-11-04T12:17:49.016Z,99.90
2022-11-04T12:21:20.992Z,99.90
2022-11-04T12:24:56.266Z,99.90
2022-11-04T12:28:45.923Z,99.90
2022-11-04T12:32:11.125Z,99.90
2022-11-04T12:35:49.226Z,99.50
2022-11-04T12:39:11.370Z,99.90
2022-11-04T12:43:11.488Z,99.90
2022-11-04T12:46:49.348Z,99.90
2022-11-04T12:50:46.812Z,99.90
2022-11-04T12:54:34.242Z,99.90
2022-11-04T12:58:28.872Z,99.90
2022-11-04T13:01:56.291Z,99.90
2022-11-04T13:05:18.656Z,99.90
2022-11-04T13:08:49.596Z,99.10
2022-11-04T13:12:16.646Z,99.90
2022-11-04T13:15:50.031Z,98.90
2022-11-04T13:19:26.284Z,98.80
2022-11-04T13:22:51.969Z,99.30
2022-11-04T13:26:16.190Z,97.00
2022-11-04T13:29:39.885Z,97.70
2022-11-04T13:33:11.404Z,98.60
2022-11-04T13:36:43.063Z,98.50
2022-11-04T13:40:11.662Z,98.30
2022-11-04T13:43:39.725Z,97.70
2022-11-04T13:47:06.811Z,98.30
2022-11-04T13:50:35.437Z,98.20
2022-11-04T13:53:58.336Z,98.30
2022-11-04T13:57:23.569Z,98.20
2022-11-04T14:01:09.551Z,97.60
2022-11-04T14:04:31.962Z,98.20
2022-11-04T14:08:17.565Z,98.30
2022-11-04T14:12:17.617Z,98.40
2022-11-04T14:16:02.352Z,98.40
2022-11-04T14:19:47.720Z,98.30
2022-11-04T14:23:23.385Z,98.10
2022-11-04T14:26:48.486Z,98.20
2022-11-04T14:30:29.112Z,98.20
2022-11-04T14:33:57.800Z,97.90
2022-11-04T14:37:29.087Z,98.20
2022-11-04T14:41:12.158Z,98.20
2022-11-04T14:44:48.015Z,97.60
2022-11-04T14:48:20.308Z,97.90
2022-11-04T14:51:42.586Z,97.90
2022-11-04T14:55:05.251Z,97.60
2022-11-04T14:58:28.286Z,97.50
2022-11-04T15:01:52.489Z,97.60
2022-11-04T15:05:33.472Z,97.40
2022-11-04T15:08:56.326Z,97.40
2022-11-04T15:12:38.444Z,97.50
2022-11-04T15:16:07.372Z,97.30
2022-11-04T15:19:35.565Z,97.30
2022-11-04T15:23:03.751Z,97.20
2022-11-04T15:26:32.537Z,97.30
2022-11-04T15:29:56.505Z,97.40
2022-11-04T15:33:18.812Z,97.80
2022-11-04T15:36:42.714Z,97.40
2022-11-04T15:40:07.018Z,97.30
2022-11-04T15:43:29.269Z,97.00
2022-11-04T15:46:54.013Z,97.40
2022-11-04T15:50:26.078Z,97.10
2022-11-04T15:54:07.399Z,97.20
2022-11-04T15:57:38.400Z,97.20
2022-11-04T16:01:00.799Z,96.70
2022-11-04T16:04:26.233Z,97.10
2022-11-04T16:07:51.014Z,96.70
2022-11-04T16:11:20.511Z,96.70
2022-11-04T16:14:52.110Z,97.40
2022-11-04T16:18:38.945Z,96.80
2022-11-04T16:22:06.101Z,97.00
2022-11-04T16:25:35.139Z,96.80
2022-11-04T16:28:59.710Z,95.50
2022-11-04T16:32:28.062Z,96.60
2022-11-04T16:35:50.281Z,96.60
2022-11-04T16:39:12.513Z,96.90
2022-11-04T16:42:34.765Z,97.10
2022-11-04T16:45:57.123Z,96.80
2022-11-04T16:49:21.783Z,95.10
2022-11-04T16:52:44.597Z,95.20
2022-11-04T16:56:07.327Z,95.30
2022-11-04T16:59:29.579Z,95.20
2022-11-04T17:02:52.547Z,94.90
2022-11-04T17:06:16.416Z,95.40
2022-11-04T17:09:38.721Z,95.60
2022-11-04T17:13:00.914Z,95.80
2022-11-04T17:16:23.256Z,95.30
2022-11-04T17:19:45.479Z,95.90
2022-11-04T17:23:09.325Z,96.10
2022-11-04T17:26:32.613Z,96.00
2022-11-04T17:29:54.864Z,96.10
2022-11-04T17:33:18.951Z,96.10
2022-11-04T17:36:41.555Z,96.20
2022-11-04T17:40:05.658Z,96.30
2022-11-04T17:43:46.331Z,96.60
2022-11-04T17:47:08.564Z,96.90
2022-11-04T17:50:32.168Z,96.50
2022-11-04T17:53:54.432Z,96.60
2022-11-04T17:57:16.852Z,96.90
2022-11-04T18:00:39.064Z,96.90
2022-11-04T18:04:01.985Z,97.60
2022-11-04T18:07:24.211Z,97.50
2022-11-04T18:10:46.428Z,97.60
2022-11-04T18:14:15.292Z,97.90
2022-11-04T18:17:44.011Z,98.40
2022-11-04T18:21:08.343Z,98.40
2022-11-04T18:24:30.678Z,98.50
2022-11-04T18:27:53.031Z,98.00
2022-11-04T18:31:25.190Z,98.10
2022-11-04T18:34:50.300Z,98.00
2022-11-04T18:38:12.489Z,97.90
2022-11-04T18:41:36.061Z,98.90
2022-11-04T18:44:58.313Z,98.90
2022-11-04T18:48:21.607Z,98.00
2022-11-04T18:51:44.423Z,97.80
2022-11-04T18:55:07.691Z,97.60
2022-11-04T18:58:34.428Z,98.80
2022-11-04T19:01:56.761Z,97.80
2022-11-04T19:05:19.123Z,97.50
2022-11-04T19:08:46.460Z,98.30
2022-11-04T19:12:27.687Z,97.70
2022-11-04T19:15:50.088Z,97.60
2022-11-04T19:19:17.818Z,98.10
2022-11-04T19:22:40.744Z,97.70
2022-11-04T19:26:08.897Z,98.10
2022-11-04T19:29:32.854Z,98.10
2022-11-04T19:32:55.171Z,98.30
2022-11-04T19:36:19.758Z,98.40
2022-11-04T19:39:42.167Z,98.40
2022-11-04T19:43:10.270Z,98.10
2022-11-04T19:46:33.801Z,97.40
2022-11-04T19:49:56.050Z,97.40
2022-11-04T19:53:18.481Z,98.10
2022-11-04T19:56:40.814Z,97.70
2022-11-04T20:00:04.340Z,97.60
2022-11-04T20:03:33.805Z,97.60
2022-11-04T20:06:56.086Z,98.40
2022-11-04T20:10:18.343Z,98.30
2022-11-04T20:13:47.187Z,98.20
2022-11-04T20:17:09.440Z,97.90
2022-11-04T20:20:31.814Z,98.00
2022-11-04T20:23:58.747Z,97.90
2022-11-04T20:27:20.982Z,97.30
2022-11-04T20:30:43.153Z,96.90
2022-11-04T20:34:10.275Z,96.90
2022-11-04T20:37:32.608Z,97.00
2022-11-04T20:40:54.836Z,97.30
2022-11-04T20:44:17.697Z,97.20
2022-11-04T20:47:40.011Z,97.30
2022-11-04T20:51:13.635Z,97.00
2022-11-04T20:54:35.872Z,97.20
2022-11-04T20:57:58.178Z,96.80
2022-11-04T21:01:26.264Z,96.70
2022-11-04T21:04:48.606Z,96.70
2022-11-04T21:08:11.198Z,97.00
2022-11-04T21:11:35.496Z,96.80
2022-11-04T21:14:57.704Z,96.60
2022-11-04T21:18:20.054Z,95.60
2022-11-04T21:21:42.928Z,93.60
2022-11-04T21:25:05.431Z,95.10
2022-11-04T21:28:27.676Z,95.70
2022-11-04T21:31:49.914Z,96.00
2022-11-04T21:35:12.181Z,96.30
2022-11-04T21:38:35.156Z,95.90
2022-11-04T21:41:57.446Z,96.20
2022-11-04T21:45:20.303Z,96.70
2022-11-04T21:48:43.293Z,96.90
2022-11-04T21:52:05.756Z,96.80
2022-11-04T21:55:27.970Z,96.50
2022-11-04T21:58:55.073Z,96.50
2022-11-04T22:02:17.602Z,97.20
2022-11-04T22:05:39.890Z,97.90
2022-11-04T22:09:03.300Z,97.70
2022-11-04T22:12:25.534Z,97.70
2022-11-04T22:16:00.515Z,97.60
2022-11-04T22:19:22.784Z,97.40
2022-11-04T22:22:45.009Z,97.30
2022-11-04T22:26:12.251Z,97.20
2022-11-04T22:29:34.458Z,97.10
2022-11-04T22:32:56.623Z,97.10
2022-11-04T22:36:19.662Z,96.90
2022-11-04T22:39:42.073Z,96.30
2022-11-04T22:43:04.522Z,96.50
2022-11-04T22:46:29.877Z,96.30
2022-11-04T22:49:52.091Z,96.40
2022-11-04T22:53:14.905Z,96.30
2022-11-04T22:56:37.322Z,96.40
2022-11-04T22:59:59.533Z,96.20
2022-11-04T23:03:21.848Z,96.50
2022-11-04T23:06:44.247Z,96.00
2022-11-04T23:10:25.329Z,96.10
2022-11-04T23:14:17.288Z,96.20
2022-11-04T23:18:00.956Z,95.90
2022-11-04T23:21:42.056Z,95.90
2022-11-04T23:25:09.917Z,95.90
2022-11-04T23:28:50.811Z,95.70
2022-11-04T23:32:13.031Z,95.60
2022-11-04T23:36:05.076Z,95.60
2022-11-04T23:39:27.568Z,95.60
2022-11-04T23:42:49.978Z,95.60
2022-11-04T23:46:31.111Z,95.50
2022-11-04T23:50:11.758Z,95.50
2022-11-04T23:53:52.715Z,95.50
2022-11-04T23:57:35.235Z,95.60
